EDT,Max TemperatureF,Mean TemperatureF,Min TemperatureF,Max Dew PointF,MeanDew PointF,Min DewpointF,Max Humidity, Mean Humidity, Min Humidity, Max Sea Level PressureIn, Mean Sea Level PressureIn, Min Sea Level PressureIn, Max VisibilityMiles, Mean VisibilityMiles, Min VisibilityMiles, Max Wind SpeedMPH, Mean Wind SpeedMPH, Max Gust SpeedMPH,PrecipitationIn, CloudCover, Events, WindDirDegrees
2013-3-1,24,17,10,14,10,7,92,75,59,30.20,30.17,30.10,10,10,5,17,11,21,0.00,0,,337
2013-3-2,23,14,6,16,9,3,93,79,59,30.19,30.14,30.06,10,10,10,17,8,22,0.00,2,,337
2013-3-3,24,14,6,12,8,3,100,80,54,30.07,30.05,30.01,10,10,10,13,6,,0.00,0,,339
2013-3-4,26,14,3,16,7,1,100,74,34,30.13,30.11,30.05,10,10,10,13,6,,0.00,0,,335
2013-3-5,33,20,8,25,16,7,93,78,48,30.16,30.10,30.04,10,10,10,13,6,17,0.00,3,,39
2013-3-6,37,30,24,28,26,23,100,88,70,30.22,30.17,30.10,10,8,2,18,8,23,0.00,8,,360
2013-3-7,30,26,21,27,23,19,100,91,80,30.40,30.31,30.22,10,10,3,16,10,20,0.00,7,,302
2013-3-8,39,29,19,32,26,19,100,87,61,30.47,30.41,30.35,10,8,0,8,4,,0.00,4,,220
2013-3-9,37,29,21,34,27,21,100,88,60,30.33,30.18,29.96,10,9,0,24,10,28,0.04,4,,134
2013-3-10,37,35,33,37,34,32,100,97,93,29.95,29.86,29.78,10,5,0,20,11,24,0.54,8,,97
2013-3-11,39,36,33,39,36,32,100,98,93,29.87,29.57,29.38,10,4,0,18,13,25,0.40,8,,70
2013-3-12,33,25,17,34,24,16,100,94,80,29.80,29.64,29.41,10,6,1,16,9,22,0.10,8,,270
2013-3-13,24,18,12,18,13,10,100,81,59,30.11,29.94,29.79,10,7,1,31,12,39,0.00,3,,304
2013-3-14,33,20,6,25,13,3,93,69,38,30.19,30.10,29.91,10,10,5,12,6,16,0.00,1,,272
2013-3-15,30,24,17,28,19,12,100,79,59,29.94,29.86,29.76,10,9,2,24,13,32,0.00,7,,303
2013-3-16,30,18,6,18,6,0,100,65,32,30.00,29.95,29.92,10,9,2,13,8,17,0.00,5,,35
2013-3-17,28,16,3,18,6,0,100,67,37,30.31,30.21,29.95,10,8,1,17,9,24,0.00,2,,30
2013-3-18,30,19,8,28,15,3,100,82,64,30.21,29.89,29.50,10,8,0,30,14,38,0.00,3,,101
2013-3-19,32,26,19,28,26,19,100,94,80,29.71,29.49,29.37,10,5,1,21,11,28,0.01,8,,216
2013-3-20,30,21,12,27,20,10,100,90,69,29.76,29.72,29.69,10,9,1,18,9,28,0.00,6,,262
2013-3-21,26,22,19,25,19,16,100,84,69,29.86,29.81,29.75,10,10,5,22,13,28,0.00,7,,314
2013-3-22,33,26,19,25,21,18,100,82,60,30.00,29.91,29.84,10,10,0,18,11,25,0.00,6,,311
2013-3-23,33,22,10,27,21,10,100,84,60,30.09,30.05,29.99,10,10,1,18,7,24,0.00,2,,319
2013-3-24,35,28,21,27,22,18,100,79,48,30.08,29.98,29.85,10,10,10,15,7,17,0.00,2,,355
2013-3-25,35,32,28,30,26,21,87,78,65,29.97,29.88,29.86,10,10,10,18,10,24,0.00,8,,355
2013-3-26,37,34,32,30,27,23,93,75,56,30.07,30.02,29.97,10,10,3,24,11,29,0.00,4,,323
2013-3-27,37,32,28,30,27,25,100,80,65,30.15,30.10,30.05,10,10,10,21,12,25,0.00,4,,307
2013-3-28,39,32,26,30,27,19,100,76,45,30.23,30.19,30.15,10,10,10,16,9,20,0.00,2,,309
2013-3-29,42,32,21,32,25,19,100,77,39,30.24,30.21,30.17,10,10,10,16,6,16,0.00,0,,305
2013-3-30,46,37,28,37,26,18,100,74,32,30.17,30.01,29.76,10,9,2,13,5,23,0.12,3,,192
2013-3-31,37,30,24,37,33,19,100,95,80,29.75,29.59,29.52,10,4,0,24,6,36,0.20,8,,241